createdAt,value
2019-01-27T09:25:32.936Z,8.40
2019-01-27T09:30:59.191Z,8.60
2019-01-27T09:36:16.108Z,9.10
2019-01-27T09:41:45.642Z,8.10
2019-01-27T09:47:17.923Z,7.70
2019-01-27T09:52:40.032Z,7.30
2019-01-27T09:58:18.651Z,7.10
2019-01-27T10:03:44.652Z,7.30
2019-01-27T10:09:10.932Z,7.20
2019-01-27T10:14:33.067Z,7.50
2019-01-27T10:19:59.287Z,8.10
2019-01-27T10:25:22.659Z,8.50
2019-01-27T10:30:48.932Z,8.40
2019-01-27T10:36:11.380Z,8.10
2019-01-27T10:41:37.879Z,7.90
2019-01-27T10:46:59.905Z,7.70
2019-01-27T10:52:23.426Z,7.70
2019-01-27T10:57:55.639Z,7.50
2019-01-27T11:03:21.674Z,7.60
2019-01-27T11:08:43.723Z,7.70
2019-01-27T11:14:08.221Z,7.80
2019-01-27T11:19:46.574Z,7.80
2019-01-27T11:25:01.978Z,7.70
2019-01-27T11:30:21.878Z,8.00
2019-01-27T11:35:45.181Z,8.10
2019-01-27T11:41:09.697Z,8.30
2019-01-27T11:46:35.774Z,8.30
2019-01-27T11:51:49.674Z,8.80
2019-01-27T11:56:53.921Z,9.00
2019-01-27T12:01:58.369Z,9.20
2019-01-27T12:07:02.632Z,9.10
2019-01-27T12:12:06.894Z,9.40
2019-01-27T12:17:11.367Z,8.90
2019-01-27T12:22:15.683Z,8.80
2019-01-27T12:27:20.038Z,9.20
2019-01-27T12:32:24.255Z,9.20
2019-01-27T12:37:28.468Z,9.00
2019-01-27T12:42:32.720Z,8.80
2019-01-27T12:47:37.049Z,9.10
2019-01-27T12:55:20.270Z,9.10
2019-01-27T13:00:29.571Z,9.00
2019-01-27T13:05:33.932Z,9.20
2019-01-27T13:10:38.153Z,9.20
2019-01-27T13:15:42.364Z,9.50
2019-01-27T13:20:46.617Z,9.30
2019-01-27T13:25:50.900Z,8.90
2019-01-27T13:30:57.353Z,8.60
2019-01-27T13:36:01.687Z,8.80
2019-01-27T13:41:05.947Z,8.70
2019-01-27T13:46:11.817Z,8.50
2019-01-27T13:51:16.068Z,8.50
2019-01-27T13:56:20.351Z,8.50
2019-01-27T14:01:29.471Z,8.30
2019-01-27T14:06:33.792Z,8.20
2019-01-27T14:11:38.075Z,8.30
2019-01-27T14:16:42.308Z,8.40
2019-01-27T14:21:46.563Z,8.20
2019-01-27T14:26:50.853Z,8.10
2019-01-27T14:31:55.088Z,8.20
2019-01-27T14:36:59.272Z,8.10
2019-01-27T14:42:03.603Z,7.90
2019-01-27T14:47:07.876Z,7.80
2019-01-27T14:52:12.132Z,7.80
2019-01-27T14:57:16.614Z,7.80
2019-01-27T15:02:20.939Z,7.70
2019-01-27T15:07:25.180Z,7.60
2019-01-27T15:12:29.404Z,7.60
2019-01-27T15:17:33.598Z,7.70
2019-01-27T15:22:37.830Z,7.60
2019-01-27T15:27:42.020Z,7.60
2019-01-27T15:32:46.383Z,7.50
2019-01-27T15:37:50.590Z,7.70
2019-01-27T15:42:54.871Z,7.50
2019-01-27T15:47:59.094Z,7.60
2019-01-27T15:53:03.460Z,7.60
2019-01-27T15:58:08.062Z,7.40
2019-01-27T16:03:12.369Z,7.50
2019-01-27T16:08:16.734Z,7.40
2019-01-27T16:13:21.168Z,7.30
2019-01-27T16:18:25.413Z,7.40
2019-01-27T16:23:41.877Z,7.30
2019-01-27T16:28:46.147Z,7.30
2019-01-27T16:33:58.685Z,7.30
2019-01-27T16:39:02.953Z,7.40
2019-01-27T16:44:07.775Z,7.30
2019-01-27T16:49:12.074Z,7.10
2019-01-27T16:54:16.320Z,7.20
2019-01-27T16:59:20.766Z,7.30
2019-01-27T17:04:25.057Z,7.20
2019-01-27T17:09:29.664Z,7.10
2019-01-27T17:14:33.960Z,7.10
2019-01-27T17:19:38.272Z,7.20
2019-01-27T17:24:42.553Z,7.00
2019-01-27T17:29:46.767Z,6.80
2019-01-27T17:34:51.048Z,6.90
2019-01-27T17:39:55.247Z,7.10
2019-01-27T17:44:59.562Z,7.20
2019-01-27T17:50:04.029Z,7.10
2019-01-27T17:55:10.121Z,6.70
2019-01-27T18:00:36.344Z,6.90
2019-01-27T18:06:02.551Z,6.70
2019-01-27T18:11:18.358Z,6.60
2019-01-27T18:16:22.678Z,6.90
2019-01-27T18:21:26.956Z,6.90
2019-01-27T18:26:31.312Z,7.00
2019-01-27T18:31:35.663Z,7.10
2019-01-27T18:36:40.031Z,7.10
2019-01-27T18:41:44.379Z,7.00
2019-01-27T18:46:48.749Z,7.40
2019-01-27T18:51:53.034Z,7.40
2019-01-27T18:57:22.246Z,7.40
2019-01-27T19:02:33.780Z,7.10
2019-01-27T19:07:57.788Z,7.30
2019-01-27T19:13:23.887Z,7.30
2019-01-27T19:18:34.946Z,7.30
2019-01-27T19:23:56.884Z,7.20
2019-01-27T19:29:20.163Z,6.90
2019-01-27T19:35:01.680Z,6.70
2019-01-27T19:40:38.809Z,6.50
2019-01-27T19:46:05.295Z,6.20
2019-01-27T19:51:19.315Z,6.10
2019-01-27T19:56:54.754Z,6.00
2019-01-27T20:02:11.728Z,6.00
2019-01-27T20:07:29.434Z,6.20
2019-01-27T20:12:58.779Z,6.20
2019-01-27T20:18:22.112Z,6.20
2019-01-27T20:23:57.410Z,6.30
2019-01-27T20:29:19.017Z,6.20
2019-01-27T20:34:35.458Z,6.20
2019-01-27T20:39:48.527Z,6.30
2019-01-27T20:45:02.375Z,6.10
2019-01-27T20:50:36.498Z,6.20
2019-01-27T20:55:59.896Z,6.10
2019-01-27T21:01:29.372Z,5.90
2019-01-27T21:06:58.681Z,5.90
2019-01-27T21:12:19.156Z,6.10
2019-01-27T21:17:39.662Z,6.20
2019-01-27T21:22:43.947Z,6.10
2019-01-27T21:27:48.184Z,6.10
2019-01-27T21:32:55.732Z,6.20
2019-01-27T21:37:58.465Z,6.00
2019-01-27T21:43:02.731Z,6.10
2019-01-27T21:48:06.997Z,6.10
2019-01-27T21:53:11.252Z,6.20
2019-01-27T21:58:15.630Z,6.10
2019-01-27T22:03:20.140Z,6.10
2019-01-27T22:08:24.366Z,6.20
2019-01-27T22:13:28.569Z,6.20
2019-01-27T22:18:32.772Z,6.20
2019-01-27T22:23:36.990Z,5.90
2019-01-27T22:28:41.321Z,5.70
2019-01-27T22:33:45.583Z,6.00
2019-01-27T22:38:51.615Z,6.10
2019-01-27T22:43:55.896Z,5.90
2019-01-27T22:49:00.104Z,6.10
2019-01-27T22:54:05.497Z,6.10
2019-01-27T22:59:09.691Z,5.80
2019-01-27T23:04:13.928Z,5.70
2019-01-27T23:09:20.117Z,5.70
2019-01-27T23:14:24.340Z,5.60
2019-01-27T23:19:28.536Z,5.70
2019-01-27T23:24:32.845Z,5.50
2019-01-27T23:29:37.036Z,5.40
2019-01-27T23:34:41.280Z,5.30
2019-01-27T23:39:45.582Z,5.50
2019-01-27T23:44:49.868Z,5.50
2019-01-27T23:49:54.074Z,5.30
2019-01-27T23:54:58.389Z,5.10
